Maxwelton, West Virginia
Current Conditions -  °F | °C
As of 1:15 PM on Monday 24 Nov 2014 (Local Time) from KLWB Reporting Station
Clear Clear  
Wind Chill: 71°   Ceiling: Unl
Heat Index: 71°   Visibility: 10mi
Dew Point: 38°   Wind: 21mph
Humidity: 31%   Direction: 230°SW
Pressure: 29.65"   Gusts: 26mph
Location:  37.87°N, 80.41°W
Report Text: KLWB 241815Z AUTO 23018G23KT 10SM CLR 22/04 A2965 RMK AO2 T02150036
Loading
Personal Weather Stations






























Interactive Weather Map New forecast layout! Learn more

10-Day Weather Forecast

Advertisements
Track Severe Weather on mobile